Aviation Digital Data Service (ADDS)

Output produced by METARs form (2230 UTC 24 November 2014)
found at http://aviationweather.gov/adds/metars/
 
KBWI 242105Z 2421/2524 22010G20KT P6SM SKC 
     FM250000 22009KT P6SM SCT250 
     FM250400 23007KT P6SM BKN060 
     FM250700 26006KT P6SM SCT250